Kezdőlap
METAR-TAF:

METAR-TAF

Repülőterek :

Galápagos, Ecuador

földrajzi szélesség: 00-54S, földrajzi hosszúság: 089-36W, magasság: 6 m

Jelenlegi meteorológiai megfigyelések

A jelentés 7 órával és 13 perccel ezelõtt készült, 00:00 UTC
Dél-délkeleti szél 10 kt
Hőmérséklet 25°C
Páratartalom 83%
Légköri nyomás 1007 hPa
Látótávolság 10 km, vagy több
Szórványos felhőzet 2000 lábon

METAR: SEST 220000Z 15010KT 9999 SCT020 25/22 Q1007 RMK A2973

Idő: 01:13 (07:13 UTC)


TAF: hiányzik

Meteorológiai megfigyelések és előrejelzések több, mint 4000 repülőtéren (METAR és TAF jelentéseket).

A térképen piros és sárga pontok jelzik az elérhető meteorológiai állomásokat.

Mozgassa az egeret a pont fölött, hogy megjelenjen az állomás neve.

Azután kattintson az időjárási megfigyelések és előrejelzések megtekintéséhez.

A térkép megváltoztatása: kattintson a fekete keresztel jelölt zöld gombra ráközelítéshez, a vonallal jelölt zöld gombra távolításhoz, vagy a zöld nyilakra a szomszédos térképek eléréséhez.


METAR-TAF: